sensor_id;sensor_type;location;lat;lon;timestamp;pressure;altitude;pressure_sealevel;temperature;humidity
22181;BME280;11256;50.830;12.834;2023-04-01T00:04:33;95866.78;;;10.43;71.89
22181;BME280;11256;50.830;12.834;2023-04-01T00:09:34;95885.38;;;10.53;72.05
22181;BME280;11256;50.830;12.834;2023-04-01T00:14:34;95891.91;;;10.52;71.82
22181;BME280;11256;50.830;12.834;2023-04-01T00:19:37;95884.25;;;10.54;71.79
22181;BME280;11256;50.830;12.834;2023-04-01T00:24:38;95890.31;;;10.51;72.31
22181;BME280;11256;50.830;12.834;2023-04-01T00:29:43;95882.88;;;10.39;72.26
22181;BME280;11256;50.830;12.834;2023-04-01T00:34:43;95877.59;;;10.43;71.99
22181;BME280;11256;50.830;12.834;2023-04-01T00:39:44;95868.06;;;10.37;71.53
22181;BME280;11256;50.830;12.834;2023-04-01T00:44:49;95879.03;;;10.40;72.33
22181;BME280;11256;50.830;12.834;2023-04-01T00:49:51;95868.41;;;10.27;71.77
22181;BME280;11256;50.830;12.834;2023-04-01T00:54:58;95882.72;;;10.36;72.26
22181;BME280;11256;50.830;12.834;2023-04-01T01:00:06;95884.31;;;10.37;71.93
22181;BME280;11256;50.830;12.834;2023-04-01T01:05:13;95882.38;;;10.37;72.15
22181;BME280;11256;50.830;12.834;2023-04-01T01:10:19;95877.94;;;10.33;72.37
22181;BME280;11256;50.830;12.834;2023-04-01T01:15:33;95885.28;;;10.32;72.27
22181;BME280;11256;50.830;12.834;2023-04-01T01:21:03;95884.63;;;10.35;72.50
22181;BME280;11256;50.830;12.834;2023-04-01T01:31:36;95873.81;;;10.27;72.25
22181;BME280;11256;50.830;12.834;2023-04-01T01:36:38;95867.78;;;10.30;71.92
22181;BME280;11256;50.830;12.834;2023-04-01T01:41:44;95869.84;;;10.24;71.86
22181;BME280;11256;50.830;12.834;2023-04-01T01:46:49;95862.03;;;10.23;72.21
22181;BME280;11256;50.830;12.834;2023-04-01T01:51:50;95867.28;;;10.28;72.34
22181;BME280;11256;50.830;12.834;2023-04-01T01:57:05;95864.28;;;10.21;72.51
22181;BME280;11256;50.830;12.834;2023-04-01T02:02:08;95874.00;;;10.22;72.70
22181;BME280;11256;50.830;12.834;2023-04-01T02:07:16;95869.88;;;10.16;72.77
22181;BME280;11256;50.830;12.834;2023-04-01T02:12:19;95863.50;;;10.12;72.93
22181;BME280;11256;50.830;12.834;2023-04-01T02:17:24;95872.13;;;10.14;72.80
22181;BME280;11256;50.830;12.834;2023-04-01T02:22:29;95861.59;;;10.12;72.44
22181;BME280;11256;50.830;12.834;2023-04-01T02:27:30;95848.22;;;9.99;72.37
22181;BME280;11256;50.830;12.834;2023-04-01T02:32:33;95864.47;;;10.07;73.06
22181;BME280;11256;50.830;12.834;2023-04-01T02:37:34;95864.63;;;10.11;72.41
22181;BME280;11256;50.830;12.834;2023-04-01T02:42:35;95864.47;;;10.07;72.42
22181;BME280;11256;50.830;12.834;2023-04-01T02:47:35;95860.66;;;10.08;72.56
22181;BME280;11256;50.830;12.834;2023-04-01T02:52:36;95869.44;;;10.05;72.34
22181;BME280;11256;50.830;12.834;2023-04-01T02:57:36;95882.44;;;10.03;72.31
22181;BME280;11256;50.830;12.834;2023-04-01T03:02:38;95864.63;;;9.94;72.76
22181;BME280;11256;50.830;12.834;2023-04-01T03:07:38;95891.41;;;10.04;72.65
22181;BME280;11256;50.830;12.834;2023-04-01T03:12:39;95885.13;;;10.03;72.37
22181;BME280;11256;50.830;12.834;2023-04-01T03:17:41;95892.00;;;10.01;72.51
22181;BME280;11256;50.830;12.834;2023-04-01T03:22:41;95880.69;;;9.99;72.42
22181;BME280;11256;50.830;12.834;2023-04-01T03:27:42;95882.44;;;9.95;72.43
22181;BME280;11256;50.830;12.834;2023-04-01T03:32:43;95882.94;;;9.97;72.47
22181;BME280;11256;50.830;12.834;2023-04-01T03:37:44;95884.84;;;9.96;72.42
22181;BME280;11256;50.830;12.834;2023-04-01T03:42:44;95892.66;;;9.98;72.74
22181;BME280;11256;50.830;12.834;2023-04-01T03:47:45;95900.94;;;9.93;72.21
22181;BME280;11256;50.830;12.834;2023-04-01T03:52:45;95891.53;;;9.90;72.60
22181;BME280;11256;50.830;12.834;2023-04-01T03:57:45;95906.81;;;9.95;72.52
22181;BME280;11256;50.830;12.834;2023-04-01T04:02:51;95905.69;;;9.96;72.75
22181;BME280;11256;50.830;12.834;2023-04-01T04:07:58;95899.34;;;9.92;72.49
22181;BME280;11256;50.830;12.834;2023-04-01T04:12:58;95900.63;;;9.86;72.58
22181;BME280;11256;50.830;12.834;2023-04-01T04:18:00;95918.91;;;9.89;72.49
22181;BME280;11256;50.830;12.834;2023-04-01T04:23:00;95921.59;;;9.89;72.83
22181;BME280;11256;50.830;12.834;2023-04-01T04:28:01;95919.22;;;9.87;73.01
22181;BME280;11256;50.830;12.834;2023-04-01T04:33:01;95921.75;;;9.84;73.11
22181;BME280;11256;50.830;12.834;2023-04-01T04:38:01;95917.00;;;9.81;72.76
22181;BME280;11256;50.830;12.834;2023-04-01T04:43:02;95928.91;;;9.80;72.54
22181;BME280;11256;50.830;12.834;2023-04-01T04:48:03;95921.31;;;9.82;72.62
22181;BME280;11256;50.830;12.834;2023-04-01T04:53:03;95911.41;;;9.69;72.75
22181;BME280;11256;50.830;12.834;2023-04-01T04:58:06;95927.97;;;9.76;72.50
22181;BME280;11256;50.830;12.834;2023-04-01T05:03:07;95914.13;;;9.69;73.14
22181;BME280;11256;50.830;12.834;2023-04-01T05:08:08;95916.97;;;9.64;72.45
22181;BME280;11256;50.830;12.834;2023-04-01T05:13:08;95928.59;;;9.73;72.68
22181;BME280;11256;50.830;12.834;2023-04-01T05:18:09;95928.91;;;9.71;72.33
22181;BME280;11256;50.830;12.834;2023-04-01T05:23:10;95942.78;;;9.70;72.73
22181;BME280;11256;50.830;12.834;2023-04-01T05:28:12;95941.00;;;9.74;73.07
22181;BME280;11256;50.830;12.834;2023-04-01T05:33:13;95944.84;;;9.73;72.56
22181;BME280;11256;50.830;12.834;2023-04-01T05:38:13;95944.69;;;9.78;72.69
22181;BME280;11256;50.830;12.834;2023-04-01T05:43:13;95956.94;;;9.75;72.81
22181;BME280;11256;50.830;12.834;2023-04-01T05:48:15;95939.13;;;9.66;72.81
22181;BME280;11256;50.830;12.834;2023-04-01T05:53:15;95950.56;;;9.80;73.06
22181;BME280;11256;50.830;12.834;2023-04-01T05:58:17;95952.78;;;9.78;72.65
22181;BME280;11256;50.830;12.834;2023-04-01T06:03:20;95958.03;;;9.83;73.00
22181;BME280;11256;50.830;12.834;2023-04-01T06:08:20;95957.59;;;9.81;72.88
22181;BME280;11256;50.830;12.834;2023-04-01T06:24:25;95958.34;;;9.90;73.17
22181;BME280;11256;50.830;12.834;2023-04-01T06:40:37;95979.56;;;10.05;73.35
22181;BME280;11256;50.830;12.834;2023-04-01T06:51:27;95982.56;;;10.20;74.28
22181;BME280;11256;50.830;12.834;2023-04-01T06:56:59;95965.88;;;10.10;74.22
22181;BME280;11256;50.830;12.834;2023-04-01T07:02:18;95989.09;;;10.28;74.77
22181;BME280;11256;50.830;12.834;2023-04-01T07:08:35;95987.19;;;10.37;75.05
22181;BME280;11256;50.830;12.834;2023-04-01T07:13:06;95992.59;;;10.37;74.52
22181;BME280;11256;50.830;12.834;2023-04-01T07:18:45;96002.16;;;10.43;74.62
22181;BME280;11256;50.830;12.834;2023-04-01T07:23:49;95994.00;;;10.51;74.32
22181;BME280;11256;50.830;12.834;2023-04-01T07:29:14;95984.63;;;10.49;74.77
22181;BME280;11256;50.830;12.834;2023-04-01T07:34:38;95998.28;;;10.69;75.28
22181;BME280;11256;50.830;12.834;2023-04-01T07:50:26;96001.06;;;10.98;75.72
22181;BME280;11256;50.830;12.834;2023-04-01T07:56:01;96001.31;;;11.14;75.82
22181;BME280;11256;50.830;12.834;2023-04-01T08:06:43;96005.19;;;12.00;75.33
22181;BME280;11256;50.830;12.834;2023-04-01T08:17:58;96015.13;;;12.69;73.05
22181;BME280;11256;50.830;12.834;2023-04-01T08:23:22;96018.22;;;13.00;72.06
22181;BME280;11256;50.830;12.834;2023-04-01T08:28:35;96019.03;;;13.25;71.88
22181;BME280;11256;50.830;12.834;2023-04-01T08:33:39;96026.56;;;13.52;71.09
22181;BME280;11256;50.830;12.834;2023-04-01T08:39:05;96015.19;;;13.50;70.07
22181;BME280;11256;50.830;12.834;2023-04-01T09:00:46;96015.84;;;13.11;69.93
22181;BME280;11256;50.830;12.834;2023-04-01T09:06:19;96021.25;;;12.99;69.54
22181;BME280;11256;50.830;12.834;2023-04-01T09:22:22;96021.16;;;12.75;69.60
22181;BME280;11256;50.830;12.834;2023-04-01T09:27:28;96012.28;;;12.66;68.88
22181;BME280;11256;50.830;12.834;2023-04-01T09:38:19;96033.41;;;12.81;70.73
22181;BME280;11256;50.830;12.834;2023-04-01T09:59:42;96039.84;;;12.97;69.12
22181;BME280;11256;50.830;12.834;2023-04-01T10:05:24;96025.50;;;12.88;69.05
22181;BME280;11256;50.830;12.834;2023-04-01T10:16:03;96043.03;;;13.11;68.87
22181;BME280;11256;50.830;12.834;2023-04-01T10:49:10;96062.09;;;13.23;67.62
22181;BME280;11256;50.830;12.834;2023-04-01T10:54:43;96050.97;;;13.16;68.17
22181;BME280;11256;50.830;12.834;2023-04-01T11:11:47;96052.13;;;13.15;67.39
22181;BME280;11256;50.830;12.834;2023-04-01T11:22:23;96068.00;;;13.13;67.52
22181;BME280;11256;50.830;12.834;2023-04-01T11:27:50;96049.81;;;13.05;67.43
22181;BME280;11256;50.830;12.834;2023-04-01T11:33:00;96070.91;;;13.08;67.04
22181;BME280;11256;50.830;12.834;2023-04-01T11:43:38;96071.44;;;13.01;67.36
22181;BME280;11256;50.830;12.834;2023-04-01T11:49:39;96077.41;;;12.95;67.26
22181;BME280;11256;50.830;12.834;2023-04-01T12:10:39;96081.53;;;13.01;67.22
22181;BME280;11256;50.830;12.834;2023-04-01T12:21:06;96086.53;;;13.11;67.71
22181;BME280;11256;50.830;12.834;2023-04-01T12:42:43;96069.06;;;13.00;68.28
22181;BME280;11256;50.830;12.834;2023-04-01T12:48:10;96108.53;;;13.18;68.29
22181;BME280;11256;50.830;12.834;2023-04-01T12:53:44;96107.38;;;13.07;68.00
22181;BME280;11256;50.830;12.834;2023-04-01T12:59:04;96106.19;;;12.96;68.02
22181;BME280;11256;50.830;12.834;2023-04-01T13:04:30;96107.88;;;12.88;68.13
22181;BME280;11256;50.830;12.834;2023-04-01T13:09:44;96100.22;;;12.82;68.15
22181;BME280;11256;50.830;12.834;2023-04-01T13:25:30;96119.41;;;13.18;69.35
22181;BME280;11256;50.830;12.834;2023-04-01T13:30:39;96115.31;;;13.44;71.23
22181;BME280;11256;50.830;12.834;2023-04-01T13:36:04;96113.28;;;13.53;70.55
22181;BME280;11256;50.830;12.834;2023-04-01T13:41:14;96120.78;;;13.56;70.15
22181;BME280;11256;50.830;12.834;2023-04-01T14:02:33;96120.69;;;13.77;69.81
22181;BME280;11256;50.830;12.834;2023-04-01T14:13:36;96128.72;;;13.61;68.90
22181;BME280;11256;50.830;12.834;2023-04-01T14:34:34;96141.28;;;13.42;69.16
22181;BME280;11256;50.830;12.834;2023-04-01T14:50:45;96141.81;;;13.35;69.66
22181;BME280;11256;50.830;12.834;2023-04-01T14:55:52;96142.94;;;13.34;69.89
22181;BME280;11256;50.830;12.834;2023-04-01T15:17:18;96151.66;;;13.28;69.79
22181;BME280;11256;50.830;12.834;2023-04-01T15:28:28;96144.75;;;13.30;69.75
22181;BME280;11256;50.830;12.834;2023-04-01T15:38:53;96146.47;;;13.35;70.05
22181;BME280;11256;50.830;12.834;2023-04-01T15:43:56;96162.13;;;13.38;70.78
22181;BME280;11256;50.830;12.834;2023-04-01T15:49:08;96154.16;;;13.33;70.62
22181;BME280;11256;50.830;12.834;2023-04-01T15:54:24;96134.84;;;13.14;70.16
22181;BME280;11256;50.830;12.834;2023-04-01T15:59:47;96152.22;;;13.21;69.99
22181;BME280;11256;50.830;12.834;2023-04-01T16:05:00;96148.88;;;13.16;70.06
22181;BME280;11256;50.830;12.834;2023-04-01T16:10:17;96167.06;;;13.24;69.90
22181;BME280;11256;50.830;12.834;2023-04-01T16:15:39;96178.72;;;13.24;70.33
22181;BME280;11256;50.830;12.834;2023-04-01T16:21:01;96173.81;;;13.18;70.23
22181;BME280;11256;50.830;12.834;2023-04-01T16:26:13;96189.63;;;13.24;70.26
22181;BME280;11256;50.830;12.834;2023-04-01T16:31:43;96189.50;;;13.21;69.60
22181;BME280;11256;50.830;12.834;2023-04-01T16:36:48;96197.31;;;13.22;70.29
22181;BME280;11256;50.830;12.834;2023-04-01T16:42:15;96205.06;;;13.12;70.00
22181;BME280;11256;50.830;12.834;2023-04-01T16:47:20;96200.72;;;12.99;69.73
22181;BME280;11256;50.830;12.834;2023-04-01T16:58:07;96211.13;;;12.97;69.38
22181;BME280;11256;50.830;12.834;2023-04-01T17:03:18;96225.84;;;12.96;69.68
22181;BME280;11256;50.830;12.834;2023-04-01T17:24:51;96248.34;;;12.76;69.31
22181;BME280;11256;50.830;12.834;2023-04-01T17:35:20;96241.41;;;12.58;69.67
22181;BME280;11256;50.830;12.834;2023-04-01T17:40:46;96262.94;;;12.63;69.50
22181;BME280;11256;50.830;12.834;2023-04-01T17:46:05;96246.09;;;12.49;69.69
22181;BME280;11256;50.830;12.834;2023-04-01T17:56:43;96283.66;;;12.47;69.65
22181;BME280;11256;50.830;12.834;2023-04-01T18:01:53;96267.78;;;12.28;69.92
22181;BME280;11256;50.830;12.834;2023-04-01T18:07:18;96302.56;;;12.35;69.54
22181;BME280;11256;50.830;12.834;2023-04-01T18:22:44;96320.50;;;12.19;69.41
22181;BME280;11256;50.830;12.834;2023-04-01T18:27:50;96316.38;;;12.13;69.36
22181;BME280;11256;50.830;12.834;2023-04-01T18:33:06;96333.34;;;12.10;69.17
22181;BME280;11256;50.830;12.834;2023-04-01T18:43:21;96349.16;;;11.99;68.83
22181;BME280;11256;50.830;12.834;2023-04-01T18:48:40;96357.59;;;11.98;68.59
22181;BME280;11256;50.830;12.834;2023-04-01T18:54:11;96362.72;;;11.91;68.53
22181;BME280;11256;50.830;12.834;2023-04-01T18:59:18;96364.97;;;11.89;69.01
22181;BME280;11256;50.830;12.834;2023-04-01T19:04:30;96369.44;;;11.85;68.66
22181;BME280;11256;50.830;12.834;2023-04-01T19:09:46;96373.13;;;11.80;68.55
22181;BME280;11256;50.830;12.834;2023-04-01T19:15:08;96382.22;;;11.76;68.54
22181;BME280;11256;50.830;12.834;2023-04-01T19:25:38;96372.31;;;11.63;68.78
22181;BME280;11256;50.830;12.834;2023-04-01T19:30:51;96384.63;;;11.60;68.95
22181;BME280;11256;50.830;12.834;2023-04-01T19:46:36;96396.22;;;11.44;69.17
22181;BME280;11256;50.830;12.834;2023-04-01T19:57:51;96411.03;;;11.46;69.12
22181;BME280;11256;50.830;12.834;2023-04-01T20:02:43;96425.72;;;11.45;69.18
22181;BME280;11256;50.830;12.834;2023-04-01T20:07:52;96428.59;;;11.40;69.24
22181;BME280;11256;50.830;12.834;2023-04-01T20:13:12;96431.66;;;11.39;69.14
22181;BME280;11256;50.830;12.834;2023-04-01T20:18:19;96442.63;;;11.34;69.34
22181;BME280;11256;50.830;12.834;2023-04-01T20:23:39;96442.47;;;11.30;69.32
22181;BME280;11256;50.830;12.834;2023-04-01T20:28:58;96458.41;;;11.32;69.34
22181;BME280;11256;50.830;12.834;2023-04-01T20:34:12;96459.84;;;11.29;69.31
22181;BME280;11256;50.830;12.834;2023-04-01T20:45:08;96457.25;;;11.16;69.59
22181;BME280;11256;50.830;12.834;2023-04-01T21:00:55;96478.78;;;11.21;69.85
22181;BME280;11256;50.830;12.834;2023-04-01T21:11:27;96487.25;;;11.19;69.99
22181;BME280;11256;50.830;12.834;2023-04-01T21:27:22;96512.09;;;11.13;69.78
22181;BME280;11256;50.830;12.834;2023-04-01T21:48:04;96538.06;;;11.05;70.21
22181;BME280;11256;50.830;12.834;2023-04-01T22:05:34;96536.41;;;10.96;70.42
22181;BME280;11256;50.830;12.834;2023-04-01T22:10:33;96545.97;;;10.93;70.89
22181;BME280;11256;50.830;12.834;2023-04-01T22:21:04;96557.13;;;10.92;70.80
22181;BME280;11256;50.830;12.834;2023-04-01T22:26:40;96557.72;;;10.89;71.13
22181;BME280;11256;50.830;12.834;2023-04-01T22:31:49;96544.06;;;10.72;71.08
22181;BME280;11256;50.830;12.834;2023-04-01T22:42:45;96570.63;;;10.83;71.21
22181;BME280;11256;50.830;12.834;2023-04-01T22:58:43;96594.94;;;10.75;71.46
22181;BME280;11256;50.830;12.834;2023-04-01T23:03:48;96594.44;;;10.73;71.67
22181;BME280;11256;50.830;12.834;2023-04-01T23:19:35;96616.19;;;10.59;72.67
22181;BME280;11256;50.830;12.834;2023-04-01T23:24:43;96619.53;;;10.43;74.78
22181;BME280;11256;50.830;12.834;2023-04-01T23:29:47;96635.78;;;10.43;73.45
22181;BME280;11256;50.830;12.834;2023-04-01T23:34:50;96641.03;;;10.39;73.44
22181;BME280;11256;50.830;12.834;2023-04-01T23:39:53;96648.44;;;10.34;73.89
22181;BME280;11256;50.830;12.834;2023-04-01T23:45:00;96637.25;;;10.13;74.00
22181;BME280;11256;50.830;12.834;2023-04-01T23:50:07;96642.06;;;10.03;75.29
